Time;durP1;ratioP1;P1;durP2;ratioP2;P2;SDS_P1;SDS_P2;PMS_P1;PMS_P2;Temp;Humidity;BMP_temperature;BMP_pressure;BME280_temperature;BME280_humidity;BME280_pressure;Samples;Min_cycle;Max_cycle;Signal;HPM_P1;HPM_P2
2022/07/24 00:00:06;;;;;;;18.92;12.00;;;;;;;18.66;65.31;101804.78;5062072;28;20110;-87
2022/07/24 00:02:37;;;;;;;18.98;12.60;;;;;;;18.62;66.14;101798.69;5073104;28;20395;-87
2022/07/24 00:05:03;;;;;;;17.15;12.48;;;;;;;18.65;65.25;101820.03;5055592;28;20029;-87
2022/07/24 00:07:29;;;;;;;17.40;12.38;;;;;;;18.53;65.97;101800.84;5038520;28;20465;-87
2022/07/24 00:09:54;;;;;;;13.82;11.80;;;;;;;18.53;64.91;101799.03;5025603;28;20028;-87
2022/07/24 00:12:20;;;;;;;17.08;12.13;;;;;;;18.57;65.03;101814.09;5061835;28;20059;-87
2022/07/24 00:14:46;;;;;;;14.45;11.63;;;;;;;18.52;65.56;101812.50;5034512;28;20044;-87
2022/07/24 00:17:11;;;;;;;17.50;12.60;;;;;;;18.45;67.05;101806.53;5029295;28;20071;-87
2022/07/24 00:19:37;;;;;;;16.63;11.77;;;;;;;18.31;67.00;101803.50;5038127;28;20040;-87
2022/07/24 00:22:03;;;;;;;16.83;12.38;;;;;;;18.29;67.21;101797.31;5055012;28;20098;-87
2022/07/24 00:24:29;;;;;;;18.10;11.93;;;;;;;18.35;66.83;101805.16;5021755;28;20032;-87
2022/07/24 00:26:55;;;;;;;18.65;12.05;;;;;;;18.34;67.89;101798.03;5054619;28;20075;-88
2022/07/24 00:29:21;;;;;;;22.80;12.35;;;;;;;18.29;67.89;101798.19;5038221;28;20025;-87
2022/07/24 00:31:46;;;;;;;16.85;11.85;;;;;;;18.24;67.74;101793.00;5037976;28;20040;-87
2022/07/24 00:34:12;;;;;;;17.42;11.13;;;;;;;18.30;65.40;101805.31;5037797;28;20067;-87
2022/07/24 00:36:37;;;;;;;20.20;11.95;;;;;;;18.29;67.11;101800.88;5048364;28;20073;-87
2022/07/24 00:39:03;;;;;;;16.80;11.20;;;;;;;18.29;66.03;101810.72;5038711;28;20103;-86
2022/07/24 00:41:29;;;;;;;15.02;11.23;;;;;;;18.26;66.85;101809.06;5054702;28;20071;-87
2022/07/24 00:44:09;;;;;;;15.98;10.93;;;;;;;18.23;66.69;101811.84;5054205;28;20030;-87
2022/07/24 00:46:37;;;;;;;18.27;11.02;;;;;;;18.17;66.71;101810.25;5054587;28;20522;-86
2022/07/24 00:49:07;;;;;;;14.02;11.38;;;;;;;18.20;67.12;101822.66;5051673;28;20430;-86
2022/07/24 00:51:34;;;;;;;14.00;11.00;;;;;;;18.16;67.55;101811.22;5054795;28;20086;-87
2022/07/24 00:54:03;;;;;;;14.38;10.60;;;;;;;18.03;67.75;101799.22;5036510;28;20068;-87
2022/07/24 00:56:30;;;;;;;16.38;10.65;;;;;;;18.07;66.50;101803.50;5054248;28;20040;-87
2022/07/24 00:58:56;;;;;;;14.63;11.23;;;;;;;18.03;67.72;101804.56;5053897;28;20024;-87
2022/07/24 01:01:21;;;;;;;16.00;10.25;;;;;;;18.02;68.37;101802.81;5066393;28;20043;-87
2022/07/24 01:03:47;;;;;;;17.25;11.02;;;;;;;18.01;68.13;101804.63;5029679;28;20492;-87
2022/07/24 01:06:13;;;;;;;15.77;11.68;;;;;;;18.06;67.86;101807.13;5051616;28;20032;-87
2022/07/24 01:08:40;;;;;;;15.32;11.10;;;;;;;18.02;67.93;101803.69;5025599;28;20029;-87
2022/07/24 01:11:06;;;;;;;15.05;10.75;;;;;;;17.95;68.26;101787.88;5015887;28;20024;-86
2022/07/24 01:13:39;;;;;;;15.38;10.70;;;;;;;17.92;68.03;101793.38;5063257;28;20032;-87
2022/07/24 01:16:06;;;;;;;18.50;10.68;;;;;;;17.95;68.17;101790.56;5072176;28;20040;-87
2022/07/24 01:18:32;;;;;;;18.27;11.18;;;;;;;17.89;69.23;101789.00;5040339;28;20033;-86
2022/07/24 01:20:57;;;;;;;14.85;11.00;;;;;;;17.87;68.77;101781.94;5035039;28;20039;-87
2022/07/24 01:23:23;;;;;;;15.82;10.35;;;;;;;17.83;68.64;101779.41;5040388;28;20041;-87
2022/07/24 01:25:49;;;;;;;15.27;10.65;;;;;;;17.87;67.65;101769.41;5055714;28;20161;-87
2022/07/24 01:28:17;;;;;;;17.58;11.48;;;;;;;17.82;67.86;101771.41;5054457;28;20060;-87
2022/07/24 01:30:43;;;;;;;15.63;10.93;;;;;;;17.84;68.92;101773.09;5054423;28;20040;-86
2022/07/24 01:33:09;;;;;;;13.05;9.85;;;;;;;17.78;68.53;101765.25;5037639;28;20099;-87
2022/07/24 01:35:35;;;;;;;14.02;10.70;;;;;;;17.77;68.82;101773.34;5065615;28;20541;-87
2022/07/24 01:38:00;;;;;;;13.63;9.57;;;;;;;17.81;68.10;101780.38;5058076;28;20033;-87
2022/07/24 01:40:26;;;;;;;14.48;11.05;;;;;;;17.77;68.41;101774.22;5061768;28;20118;-86
2022/07/24 01:42:51;;;;;;;14.40;10.43;;;;;;;17.82;68.43;101785.66;5031754;28;20521;-86
2022/07/24 01:45:17;;;;;;;13.52;9.88;;;;;;;17.87;68.71;101790.00;5035937;28;20060;-87
2022/07/24 01:47:43;;;;;;;19.45;10.32;;;;;;;17.79;69.08;101777.72;5049340;28;20072;-86
2022/07/24 01:50:10;;;;;;;19.58;11.40;;;;;;;17.76;67.40;101782.31;5041009;28;20131;-87
2022/07/24 01:52:37;;;;;;;21.45;11.20;;;;;;;17.73;68.91;101780.63;5057918;28;20032;-87
2022/07/24 01:55:03;;;;;;;19.38;11.82;;;;;;;17.66;70.19;101780.91;5057681;28;20052;-87
2022/07/24 01:57:28;;;;;;;16.63;12.27;;;;;;;17.66;69.78;101780.91;5040826;28;20036;-86
2022/07/24 01:59:54;;;;;;;16.20;10.63;;;;;;;17.61;68.42;101773.91;5075494;28;20062;-87
2022/07/24 02:02:20;;;;;;;19.67;10.73;;;;;;;17.58;69.39;101773.13;5024344;28;20138;-87
2022/07/24 02:04:45;;;;;;;15.25;11.27;;;;;;;17.57;69.42;101782.97;5040325;28;20498;-87
2022/07/24 02:07:11;;;;;;;14.95;11.02;;;;;;;17.51;70.70;101768.97;5014170;28;20033;-87
2022/07/24 02:09:36;;;;;;;18.40;10.52;;;;;;;17.51;70.10;101782.34;5058255;28;20032;-87
2022/07/24 02:12:02;;;;;;;15.32;10.25;;;;;;;17.45;70.81;101780.75;5058302;28;20100;-86
2022/07/24 02:14:28;;;;;;;12.88;10.25;;;;;;;17.41;70.20;101771.09;5024886;28;20044;-87
2022/07/24 02:16:53;;;;;;;15.82;10.02;;;;;;;17.39;69.79;101779.16;5053894;28;20118;-87
2022/07/24 02:19:19;;;;;;;12.00;10.35;;;;;;;17.34;70.33;101770.41;5023898;28;20033;-87
2022/07/24 02:21:44;;;;;;;16.40;10.13;;;;;;;17.36;70.05;101771.25;5053860;28;20037;-87
2022/07/24 02:24:10;;;;;;;13.30;10.02;;;;;;;17.35;71.31;101782.88;5019463;28;20120;-86
2022/07/24 02:26:35;;;;;;;13.48;8.95;;;;;;;17.31;70.24;101766.97;5036940;28;20454;-87
2022/07/24 02:29:01;;;;;;;11.57;9.25;;;;;;;17.24;70.09;101760.97;5037308;28;20569;-87
2022/07/24 02:31:27;;;;;;;18.10;10.23;;;;;;;17.22;71.00;101761.94;5004013;28;20526;-86
2022/07/24 02:33:52;;;;;;;15.55;9.38;;;;;;;17.22;71.53;101770.84;5012795;28;20056;-86
2022/07/24 02:36:18;;;;;;;11.77;9.57;;;;;;;17.16;70.12;101776.41;5022892;28;20037;-86
2022/07/24 02:38:43;;;;;;;14.02;9.23;;;;;;;17.06;71.05;101767.84;5046887;28;20086;-86
2022/07/24 02:41:09;;;;;;;10.43;8.57;;;;;;;16.95;70.75;101762.84;5006172;28;20041;-87
2022/07/24 02:43:34;;;;;;;13.55;10.18;;;;;;;17.01;71.43;101782.28;5048543;28;20021;-87
2022/07/24 02:46:00;;;;;;;11.10;8.82;;;;;;;17.00;70.86;101785.91;5024393;28;20029;-86
2022/07/24 02:48:25;;;;;;;13.00;9.15;;;;;;;17.01;71.81;101782.28;5035376;28;20040;-87
2022/07/24 02:50:51;;;;;;;12.13;9.93;;;;;;;16.93;71.80;101771.84;5044753;28;20029;-87
2022/07/24 02:53:17;;;;;;;11.98;8.73;;;;;;;16.87;72.22;101772.06;5034654;28;20040;-86
2022/07/24 02:55:42;;;;;;;14.48;9.38;;;;;;;16.97;72.66;101776.16;5020059;28;20097;-87
2022/07/24 02:58:08;;;;;;;14.15;9.70;;;;;;;16.96;73.22;101786.00;5036375;28;20399;-87
2022/07/24 03:00:34;;;;;;;14.52;9.27;;;;;;;16.87;72.92;101775.59;5024471;28;20033;-87
2022/07/24 03:02:59;;;;;;;14.13;9.68;;;;;;;16.81;72.82;101764.22;5030232;28;20432;-87
2022/07/24 03:05:25;;;;;;;12.45;9.35;;;;;;;16.87;73.36;101777.41;5036375;28;20033;-87
2022/07/24 03:07:50;;;;;;;11.77;9.52;;;;;;;16.81;73.23;101765.09;5024280;28;20059;-86
2022/07/24 03:10:16;;;;;;;12.30;10.13;;;;;;;16.79;74.16;101776.78;5036590;28;20123;-87
2022/07/24 03:12:42;;;;;;;13.38;10.68;;;;;;;16.77;73.85;101769.66;5052675;28;20387;-87
2022/07/24 03:15:09;;;;;;;13.40;10.43;;;;;;;16.74;74.74;101777.78;5057111;28;20044;-87
2022/07/24 03:17:34;;;;;;;12.63;9.48;;;;;;;16.72;72.55;101776.09;5036794;28;20390;-87
2022/07/24 03:20:00;;;;;;;18.40;10.73;;;;;;;16.58;73.74;101759.59;5009634;28;20033;-87
2022/07/24 03:22:27;;;;;;;18.30;10.70;;;;;;;16.60;75.11;101765.78;5056174;28;20028;-87
2022/07/24 03:24:53;;;;;;;12.90;9.98;;;;;;;16.56;74.74;101770.34;5051206;28;20029;-86
2022/07/24 03:27:18;;;;;;;15.80;11.77;;;;;;;16.46;74.79;101751.03;5039188;28;20501;-87
2022/07/24 03:29:44;;;;;;;14.07;10.68;;;;;;;16.46;76.29;101744.81;5027968;28;20103;-86
2022/07/24 03:32:10;;;;;;;15.10;11.27;;;;;;;16.46;75.66;101758.19;5030792;28;20040;-86
2022/07/24 03:34:35;;;;;;;16.15;11.02;;;;;;;16.40;74.50;101748.56;5073591;28;20044;-86
2022/07/24 03:37:01;;;;;;;18.25;11.18;;;;;;;16.52;75.51;101766.91;5029112;28;20037;-87
2022/07/24 03:39:26;;;;;;;16.55;11.75;;;;;;;16.51;76.57;101773.16;5051634;28;20486;-87
2022/07/24 03:41:52;;;;;;;15.15;11.95;;;;;;;16.38;76.03;101758.44;5051004;28;20090;-87
2022/07/24 03:44:17;;;;;;;15.07;11.93;;;;;;;16.43;76.22;101760.97;5039277;28;20043;-86
2022/07/24 03:46:43;;;;;;;14.75;11.70;;;;;;;16.33;75.46;101763.06;5055582;28;20078;-87
2022/07/24 03:49:08;;;;;;;15.52;11.82;;;;;;;16.37;76.22;101766.50;5035449;28;20087;-86
2022/07/24 03:51:35;;;;;;;18.35;12.18;;;;;;;16.28;76.16;101747.16;5038662;28;20115;-87
2022/07/24 03:54:02;;;;;;;16.80;12.07;;;;;;;16.31;76.41;101773.78;5055322;28;20468;-87
2022/07/24 03:56:28;;;;;;;18.67;13.63;;;;;;;16.23;77.26;101757.13;5038414;28;20082;-86
2022/07/24 03:58:54;;;;;;;19.02;12.60;;;;;;;16.29;76.98;101761.38;5050079;28;20039;-87
2022/07/24 04:01:21;;;;;;;16.60;12.35;;;;;;;16.18;77.54;101740.34;5073028;28;20426;-87
2022/07/24 04:03:46;;;;;;;19.00;12.05;;;;;;;16.22;77.82;101754.47;5038350;28;20039;-87
2022/07/24 04:06:12;;;;;;;20.88;13.15;;;;;;;16.16;78.40;101750.22;5050416;28;20016;-87
2022/07/24 04:08:38;;;;;;;16.88;13.50;;;;;;;16.19;77.76;101751.91;5038435;28;20111;-87
2022/07/24 04:11:03;;;;;;;20.52;13.00;;;;;;;16.20;77.48;101754.53;5072859;28;20390;-87
2022/07/24 04:13:30;;;;;;;18.63;13.55;;;;;;;16.26;78.45;101758.81;5046311;28;20479;-87
2022/07/24 04:15:57;;;;;;;24.15;14.73;;;;;;;16.24;78.41;101753.50;5034656;28;20051;-86
2022/07/24 04:18:23;;;;;;;19.88;14.13;;;;;;;16.20;79.04;101742.97;5024718;28;20030;-87
2022/07/24 04:20:49;;;;;;;18.75;14.93;;;;;;;16.16;78.34;101742.19;5045031;28;20033;-86
2022/07/24 04:23:15;;;;;;;20.33;14.23;;;;;;;16.18;78.60;101747.50;5051446;28;20025;-87
2022/07/24 04:25:40;;;;;;;21.02;14.68;;;;;;;16.27;79.13;101766.81;5034558;28;20025;-87
2022/07/24 04:28:06;;;;;;;20.48;14.48;;;;;;;16.23;78.94;101758.91;5043522;28;20061;-86
2022/07/24 04:30:32;;;;;;;20.42;14.50;;;;;;;16.28;78.28;101763.19;5010981;28;20615;-87
2022/07/24 04:32:57;;;;;;;19.55;15.77;;;;;;;16.26;79.67;101758.81;5052584;28;20116;-86
2022/07/24 04:35:24;;;;;;;22.50;15.07;;;;;;;16.30;78.63;101781.88;5041871;28;20292;-87
2022/07/24 04:37:50;;;;;;;23.83;17.35;;;;;;;16.31;79.71;101779.13;5037821;28;20436;-87
2022/07/24 04:40:16;;;;;;;26.55;18.17;;;;;;;16.38;79.44;101787.84;5040246;28;20037;-87
2022/07/24 04:42:41;;;;;;;20.35;17.23;;;;;;;16.29;80.42;101770.28;5034546;28;20059;-87
2022/07/24 04:45:12;;;;;;;23.30;17.67;;;;;;;16.34;79.54;101767.47;5021378;28;20082;-87
2022/07/24 04:47:38;;;;;;;24.13;16.17;;;;;;;16.34;78.84;101772.81;5051244;28;20041;-87
2022/07/24 04:50:05;;;;;;;24.70;18.52;;;;;;;16.40;78.52;101782.47;5052328;28;20027;-87
2022/07/24 04:52:31;;;;;;;30.02;19.35;;;;;;;16.32;79.75;101764.84;5034655;28;20098;-87
2022/07/24 04:54:57;;;;;;;29.65;18.13;;;;;;;16.40;78.85;101771.75;5034316;28;20033;-88
2022/07/24 04:57:23;;;;;;;25.38;19.25;;;;;;;16.42;80.26;101769.88;5040683;28;20036;-87
2022/07/24 04:59:48;;;;;;;28.60;19.15;;;;;;;16.52;80.80;101776.72;5031049;28;20018;-87
2022/07/24 05:02:14;;;;;;;27.50;19.35;;;;;;;16.50;79.00;101770.53;5022617;28;20033;-86
2022/07/24 05:04:39;;;;;;;32.60;19.90;;;;;;;16.58;81.21;101776.50;5024219;28;20029;-87
2022/07/24 05:07:05;;;;;;;33.20;21.27;;;;;;;16.56;80.90;101759.63;5051214;28;20131;-87
2022/07/24 05:09:31;;;;;;;32.75;21.38;;;;;;;16.70;80.70;101772.56;5039205;28;20099;-87
2022/07/24 05:11:57;;;;;;;24.20;16.27;;;;;;;16.75;77.20;101763.47;5056036;28;20098;-87
2022/07/24 05:14:29;;;;;;;27.75;22.67;;;;;;;16.84;81.12;101761.44;5028708;28;20032;-87
2022/07/24 05:16:55;;;;;;;33.25;22.13;;;;;;;16.88;80.50;101758.63;5051125;28;20040;-87
2022/07/24 05:19:21;;;;;;;23.88;17.90;;;;;;;16.96;79.69;101759.25;5075845;28;20044;-87
2022/07/24 05:21:46;;;;;;;31.67;21.85;;;;;;;16.99;79.78;101752.91;5044026;28;20116;-87
2022/07/24 05:24:12;;;;;;;27.17;18.67;;;;;;;17.17;78.02;101776.34;5063871;28;20028;-86
2022/07/24 05:26:37;;;;;;;34.67;23.00;;;;;;;17.14;79.75;101762.22;5061557;28;20198;-87
2022/07/24 05:29:10;;;;;;;41.97;23.15;;;;;;;17.30;80.09;101783.97;5025829;28;20097;-87
2022/07/24 05:31:35;;;;;;;34.65;23.67;;;;;;;17.28;80.93;101775.97;5058126;28;20033;-87
2022/07/24 05:34:03;;;;;;;42.83;25.45;;;;;;;17.34;80.51;101780.25;5076069;28;20020;-87
2022/07/24 05:36:29;;;;;;;34.28;25.30;;;;;;;17.42;80.21;101781.72;5038518;28;20048;-87
2022/07/24 05:38:55;;;;;;;33.45;24.70;;;;;;;17.48;79.87;101782.44;5033275;28;20391;-87
2022/07/24 05:41:20;;;;;;;39.97;26.38;;;;;;;17.60;80.06;101793.56;5040306;28;20187;-87
2022/07/24 05:43:46;;;;;;;43.95;26.50;;;;;;;17.60;79.60;101782.00;5047310;28;20025;-87
2022/07/24 05:46:14;;;;;;;38.35;25.98;;;;;;;17.75;80.11;101796.63;5045610;28;20034;-88
2022/07/24 05:48:39;;;;;;;32.55;25.13;;;;;;;17.70;79.55;101782.53;5057513;28;20032;-88
2022/07/24 05:51:16;;;;;;;35.00;26.13;;;;;;;17.83;79.00;101787.44;5038216;28;20129;-87
2022/07/24 05:53:41;;;;;;;36.92;25.90;;;;;;;17.98;79.22;101798.50;5012230;28;20048;-88
2022/07/24 05:56:07;;;;;;;31.75;24.52;;;;;;;18.00;78.53;101789.47;5050877;28;20028;-88
2022/07/24 05:58:33;;;;;;;38.88;24.85;;;;;;;18.01;78.73;101785.84;5027530;28;20109;-88
2022/07/24 06:01:06;;;;;;;35.75;26.23;;;;;;;18.16;77.92;101803.16;5057649;28;20044;-89
2022/07/24 06:03:31;;;;;;;38.67;25.17;;;;;;;18.14;78.17;101793.44;5051574;28;20147;-88
2022/07/24 06:06:00;;;;;;;36.28;24.48;;;;;;;18.27;77.78;101806.31;5074466;28;20111;-90
2022/07/24 06:08:26;;;;;;;36.45;24.85;;;;;;;18.29;77.74;101787.47;5066670;28;20036;-88
2022/07/24 06:10:52;;;;;;;36.25;25.30;;;;;;;18.44;77.35;101791.34;5043773;28;20017;-88
2022/07/24 06:13:29;;;;;;;41.60;25.17;;;;;;;18.45;77.26;101788.63;5048281;28;20032;-88
2022/07/24 06:15:55;;;;;;;31.85;24.45;;;;;;;18.58;76.46;101780.97;5072227;28;20124;-88
2022/07/24 06:18:22;;;;;;;37.35;24.92;;;;;;;18.70;75.91;101790.31;5030929;28;20445;-88
2022/07/24 06:21:06;;;;;;;;;;;;;;;;;;;;;
2022/07/24 06:23:34;;;;;;;31.00;21.65;;;;;;;18.83;74.19;101786.22;5027613;28;20052;-88
2022/07/24 06:26:00;;;;;;;39.88;23.98;;;;;;;18.95;74.58;101789.34;5057298;28;20020;-89
2022/07/24 06:28:35;;;;;;;32.80;23.00;;;;;;;19.07;74.04;101795.06;5045633;28;20067;-89
2022/07/24 06:31:08;;;;;;;35.22;23.63;;;;;;;19.14;72.85;101798.38;5040645;28;20037;-93
2022/07/24 06:33:36;;;;;;;36.38;22.35;;;;;;;19.15;72.91;101788.50;5058281;28;20040;-89
2022/07/24 06:36:01;;;;;;;26.98;20.65;;;;;;;19.22;72.87;101782.81;5041041;28;20025;-89
2022/07/24 06:38:30;;;;;;;31.70;22.27;;;;;;;19.39;72.87;101803.56;5041101;28;20036;-89
2022/07/24 06:40:58;;;;;;;29.75;22.65;;;;;;;19.38;71.97;101798.25;5068057;28;20036;-88
2022/07/24 06:43:27;;;;;;;24.05;17.70;;;;;;;19.41;71.34;101782.88;5058011;28;20056;-88
2022/07/24 06:45:52;;;;;;;33.60;21.55;;;;;;;19.50;72.30;101777.09;5067491;28;20396;-88
2022/07/24 06:48:18;;;;;;;26.90;18.70;;;;;;;19.65;70.24;101783.59;5054730;28;20036;-88
2022/07/24 06:50:54;;;;;;;;;;;;;;;;;;;;;
2022/07/24 06:53:25;;;;;;;33.13;20.50;;;;;;;19.80;70.95;101784.75;5060633;28;20036;-89
2022/07/24 06:56:09;;;;;;;30.30;20.13;;;;;;;19.93;70.35;101787.72;5049454;28;20040;-89
2022/07/24 06:58:35;;;;;;;29.58;19.48;;;;;;;20.09;68.46;101791.47;5048933;28;20032;-88
2022/07/24 07:01:01;;;;;;;26.88;18.05;;;;;;;20.16;69.20;101786.69;5043643;28;20112;-88
2022/07/24 07:03:26;;;;;;;24.98;16.10;;;;;;;20.19;67.93;101781.16;5057401;28;20127;-88
2022/07/24 07:05:55;;;;;;;23.85;16.30;;;;;;;20.30;67.21;101781.53;5023715;28;20055;-89
2022/07/24 07:08:20;;;;;;;23.63;16.05;;;;;;;20.42;66.57;101793.50;5058716;28;20055;-89
2022/07/24 07:10:46;;;;;;;18.73;14.05;;;;;;;20.47;66.17;101775.31;5058191;28;20491;-89
2022/07/24 07:13:12;;;;;;;19.58;14.75;;;;;;;20.52;65.87;101762.50;5038276;28;20033;-88
2022/07/24 07:15:37;;;;;;;16.67;12.93;;;;;;;20.74;65.09;101783.03;5053747;28;20102;-89
2022/07/24 07:18:05;;;;;;;19.30;13.30;;;;;;;20.81;64.50;101781.78;5053885;28;20024;-87
2022/07/24 07:20:31;;;;;;;24.50;13.55;;;;;;;20.93;64.23;101794.63;5042618;28;20086;-87
2022/07/24 07:22:57;;;;;;;13.70;10.63;;;;;;;20.97;62.37;101795.34;5057994;28;20028;-89
2022/07/24 07:25:22;;;;;;;15.35;10.32;;;;;;;20.96;60.71;101788.22;5041071;28;20434;-89
2022/07/24 07:27:51;;;;;;;12.80;9.85;;;;;;;21.03;60.87;101790.50;5052476;28;20036;-90
2022/07/24 07:30:19;;;;;;;16.17;10.32;;;;;;;21.13;59.93;101799.00;5040590;28;20032;-90
2022/07/24 07:32:44;;;;;;;13.70;9.95;;;;;;;21.21;60.70;101786.00;5023468;28;20028;-89
2022/07/24 07:35:11;;;;;;;12.63;8.32;;;;;;;21.38;59.56;101803.13;5075792;28;20040;-87
2022/07/24 07:37:39;;;;;;;13.07;7.80;;;;;;;21.40;56.87;101790.47;5059614;28;20054;-92
2022/07/24 07:40:05;;;;;;;12.88;8.25;;;;;;;21.53;57.47;101794.25;5046986;28;20535;-88
2022/07/24 07:42:31;;;;;;;12.18;8.02;;;;;;;21.58;57.62;101785.94;5014520;28;20056;-85
2022/07/24 07:44:59;;;;;;;8.48;6.30;;;;;;;21.71;57.24;101792.44;5035498;28;20167;-86
2022/07/24 07:47:34;;;;;;;9.57;5.57;;;;;;;21.86;55.15;101798.81;5034266;28;20036;-85
2022/07/24 07:50:05;;;;;;;7.57;5.38;;;;;;;21.90;54.77;101795.84;5037786;28;20041;-86
2022/07/24 07:52:31;;;;;;;8.25;4.82;;;;;;;22.03;54.10;101796.06;5053546;28;20043;-87
2022/07/24 07:54:59;;;;;;;6.85;4.30;;;;;;;22.12;52.31;101794.69;5067315;28;20021;-85
2022/07/24 07:57:25;;;;;;;6.18;4.28;;;;;;;22.15;51.17;101786.41;5056965;28;20451;-86
2022/07/24 07:59:50;;;;;;;9.02;4.50;;;;;;;22.21;52.31;101796.06;5037070;28;20040;-85
2022/07/24 08:02:16;;;;;;;5.88;3.90;;;;;;;22.24;52.37;101782.38;5029009;28;20035;-86
2022/07/24 08:04:42;;;;;;;6.60;3.25;;;;;;;22.33;50.72;101790.84;5039211;28;20490;-87
2022/07/24 08:07:08;;;;;;;5.35;3.33;;;;;;;22.43;51.85;101777.69;5050535;28;20033;-86
2022/07/24 08:09:33;;;;;;;4.45;2.97;;;;;;;22.54;52.40;101777.94;5038699;28;20045;-85
2022/07/24 08:11:59;;;;;;;4.68;3.40;;;;;;;22.67;51.54;101782.63;5074778;28;20041;-88
2022/07/24 08:14:24;;;;;;;6.07;3.63;;;;;;;22.70;51.36;101782.44;5018680;28;20120;-87
2022/07/24 08:16:50;;;;;;;6.95;3.42;;;;;;;22.81;50.87;101782.69;5044925;28;20056;-88
2022/07/24 08:19:22;;;;;;;11.98;3.45;;;;;;;22.93;51.37;101790.09;5029055;28;20380;-88
2022/07/24 08:21:48;;;;;;;6.10;3.67;;;;;;;22.96;51.09;101781.78;5039571;28;20440;-90
2022/07/24 08:24:20;;;;;;;9.52;3.17;;;;;;;23.14;50.40;101779.84;5038631;28;20121;-87
2022/07/24 08:26:47;;;;;;;5.88;3.70;;;;;;;23.21;50.01;101784.91;5024276;28;20036;-87
2022/07/24 08:29:13;;;;;;;4.75;3.40;;;;;;;23.29;51.17;101785.31;5038513;28;20123;-86
2022/07/24 08:31:38;;;;;;;6.90;3.20;;;;;;;23.36;51.33;101790.25;5038890;28;20032;-86
2022/07/24 08:34:04;;;;;;;6.65;3.30;;;;;;;23.41;50.61;101784.56;5022793;28;20364;-88
2022/07/24 08:36:30;;;;;;;4.25;3.00;;;;;;;23.46;50.41;101787.84;5034220;28;20037;-86
2022/07/24 08:38:56;;;;;;;5.13;3.10;;;;;;;23.61;50.61;101784.22;5047298;28;20036;-86
2022/07/24 08:41:22;;;;;;;5.15;3.45;;;;;;;23.75;49.53;101783.38;5021482;28;20675;-86
2022/07/24 08:43:47;;;;;;;4.20;2.92;;;;;;;23.88;49.99;101778.06;5037859;28;20028;-86
2022/07/24 08:46:15;;;;;;;4.82;3.20;;;;;;;23.99;49.17;101780.09;5039899;28;20041;-85
2022/07/24 08:48:45;;;;;;;5.78;3.33;;;;;;;23.98;49.06;101765.69;5035453;28;20041;-86
2022/07/24 08:51:14;;;;;;;4.80;3.17;;;;;;;24.18;50.09;101785.19;5035731;28;20061;-85
2022/07/24 08:53:42;;;;;;;7.43;3.20;;;;;;;24.18;48.87;101777.97;5059126;28;20360;-86
2022/07/24 08:56:09;;;;;;;5.28;2.70;;;;;;;24.23;48.79;101773.13;5041871;28;20024;-86
2022/07/24 08:58:39;;;;;;;5.15;2.92;;;;;;;24.42;48.41;101775.47;5055447;28;20024;-87
2022/07/24 09:01:05;;;;;;;5.07;2.75;;;;;;;24.56;48.74;101779.19;5036354;28;20443;-86
2022/07/24 09:03:42;;;;;;;6.97;2.80;;;;;;;24.56;48.04;101774.63;5037536;28;20040;-86
2022/07/24 09:06:10;;;;;;;3.67;2.40;;;;;;;24.64;46.19;101780.38;5037837;28;20028;-84
2022/07/24 09:08:37;;;;;;;5.25;2.63;;;;;;;24.70;47.25;101776.41;5026908;28;20067;-84
2022/07/24 09:11:04;;;;;;;4.00;2.83;;;;;;;24.75;46.83;101778.81;5068867;28;20426;-84
2022/07/24 09:16:22;;;;;;;4.07;2.65;;;;;;;24.87;48.06;101765.28;5051456;28;20387;-84
2022/07/24 09:18:50;;;;;;;4.30;2.53;;;;;;;25.02;47.53;101755.25;5039105;28;20380;-84
2022/07/24 09:21:17;;;;;;;5.47;2.70;;;;;;;25.07;46.93;101753.13;5077351;28;20028;-85
2022/07/24 09:23:44;;;;;;;3.83;2.78;;;;;;;25.11;47.45;101761.91;5044976;28;20060;-85
2022/07/24 09:26:10;;;;;;;4.38;2.58;;;;;;;25.03;47.12;101761.56;5038297;28;20044;-84
2022/07/24 09:28:52;;;;;;;3.80;2.60;;;;;;;25.09;47.36;101753.88;5026999;28;20026;-85
2022/07/24 09:31:17;;;;;;;4.18;2.60;;;;;;;25.29;47.22;101749.81;5053568;28;20040;-84
2022/07/24 09:33:43;;;;;;;5.93;2.83;;;;;;;25.49;46.27;101750.25;5045838;28;20029;-86
2022/07/24 09:36:17;;;;;;;4.00;2.72;;;;;;;25.70;47.38;101748.75;5043671;28;20071;-83
2022/07/24 09:38:50;;;;;;;4.72;2.90;;;;;;;25.86;47.70;101748.53;5037660;28;20044;-83
2022/07/24 09:41:24;;;;;;;4.68;2.72;;;;;;;26.05;47.46;101744.50;5049793;28;20131;-83
2022/07/24 09:44:00;;;;;;;4.88;2.67;;;;;;;26.14;44.98;101751.97;5046238;28;20568;-85
2022/07/24 09:46:26;;;;;;;5.72;2.70;;;;;;;26.13;44.65;101744.78;5033893;28;20504;-84
2022/07/24 09:48:58;;;;;;;5.03;2.70;;;;;;;26.14;45.34;101746.53;5025817;28;20073;-85
2022/07/24 09:51:27;;;;;;;7.35;2.80;;;;;;;26.18;45.92;101740.75;5022248;28;20165;-84
2022/07/24 09:54:00;;;;;;;4.32;2.70;;;;;;;26.22;45.24;101741.41;5045536;28;20025;-84
2022/07/24 09:56:27;;;;;;;4.40;3.05;;;;;;;26.15;45.16;101743.69;5048695;28;20094;-83
2022/07/24 09:58:55;;;;;;;4.50;2.70;;;;;;;26.28;45.53;101734.66;5065383;28;20036;-82
2022/07/24 10:01:23;;;;;;;6.90;3.10;;;;;;;26.40;45.68;101720.16;5038554;28;20032;-83
2022/07/24 10:03:52;;;;;;;4.70;2.80;;;;;;;26.49;45.12;101729.47;5027151;28;20040;-82
2022/07/24 10:06:21;;;;;;;3.67;2.20;;;;;;;26.59;44.77;101723.25;5052287;28;20123;-83
2022/07/24 10:08:48;;;;;;;4.97;2.60;;;;;;;26.70;45.06;101727.84;5070142;28;20479;-81
2022/07/24 10:11:14;;;;;;;3.90;2.42;;;;;;;26.93;44.74;101712.53;5041780;28;20048;-83
2022/07/24 10:13:41;;;;;;;5.43;2.70;;;;;;;27.10;44.57;101716.66;5037808;28;20396;-83
2022/07/24 10:16:13;;;;;;;7.25;2.40;;;;;;;27.29;43.09;101710.66;5040325;28;20118;-81
2022/07/24 10:19:03;;;;;;;3.05;2.35;;;;;;;27.43;43.74;101701.41;5057689;28;20036;-83
2022/07/24 10:21:35;;;;;;;7.45;2.70;;;;;;;27.41;42.58;101700.66;5041173;28;20581;-81
2022/07/24 10:24:03;;;;;;;3.38;2.47;;;;;;;27.53;41.95;101709.72;5075066;28;20040;-79
2022/07/24 10:26:35;;;;;;;3.72;2.50;;;;;;;27.56;42.41;101707.59;5061643;28;20369;-82
2022/07/24 10:29:13;;;;;;;4.68;2.80;;;;;;;27.59;42.94;101699.19;5075863;28;20430;-80
2022/07/24 10:31:47;;;;;;;3.90;2.60;;;;;;;27.82;43.05;101701.94;5046200;28;20121;-82
2022/07/24 10:34:50;;;;;;;8.10;2.70;;;;;;;27.92;43.25;101702.94;5057845;28;20040;-81
2022/07/24 10:37:37;;;;;;;5.43;2.35;;;;;;;28.04;40.64;101706.47;5057066;28;20044;-79
2022/07/24 10:40:22;;;;;;;6.80;2.75;;;;;;;28.02;41.94;101700.31;5033066;28;20041;-83
2022/07/24 10:43:09;;;;;;;4.15;2.53;;;;;;;28.01;42.49;101710.31;5057779;28;20120;-83
2022/07/24 10:45:45;;;;;;;8.98;2.80;;;;;;;27.94;40.95;101694.63;5030553;28;20036;-82
2022/07/24 10:48:40;;;;;;;4.60;2.50;;;;;;;28.01;40.75;101688.53;5059391;28;20482;-82
2022/07/24 10:51:09;;;;;;;2.95;2.10;;;;;;;28.08;39.82;101700.66;5052404;28;20048;-82
2022/07/24 10:53:37;;;;;;;3.53;2.03;;;;;;;28.26;39.65;101695.56;5055865;28;20036;-82
2022/07/24 10:56:15;;;;;;;4.10;2.35;;;;;;;28.47;39.62;101695.63;5040443;28;20029;-83
2022/07/24 10:59:03;;;;;;;3.90;2.05;;;;;;;28.49;39.43;101687.34;5051116;28;20086;-81
2022/07/24 11:01:42;;;;;;;3.88;2.00;;;;;;;28.55;38.73;101686.81;5055006;28;20039;-82
2022/07/24 11:04:23;;;;;;;3.03;2.03;;;;;;;28.58;39.67;101689.28;5040004;28;20089;-81
2022/07/24 11:07:08;;;;;;;3.90;2.38;;;;;;;28.66;40.02;101691.34;5074303;28;20036;-79
2022/07/24 11:09:55;;;;;;;4.53;1.98;;;;;;;28.89;40.07;101682.06;5061534;28;20028;-80
2022/07/24 11:12:29;;;;;;;3.70;2.10;;;;;;;28.89;37.79;101682.06;5056315;28;20471;-78
2022/07/24 11:17:48;;;;;;;3.80;2.30;;;;;;;28.77;38.56;101683.13;5074026;28;20048;-81
2022/07/24 11:20:16;;;;;;;6.30;2.05;;;;;;;28.64;38.26;101675.13;5056626;28;20040;-78
2022/07/24 11:22:50;;;;;;;4.88;2.30;;;;;;;28.76;39.21;101675.97;5056259;28;20044;-79
2022/07/24 11:25:28;;;;;;;3.25;2.45;;;;;;;28.87;37.88;101678.59;5056090;28;20483;-80